Alpine Airstrip, AK

3:12 PM AKST on February 09, 2016 (GMT -0900)
Deadhorse Alpine Airstrip | | Change Station
CLOSE
Current Station
Airport
Location: Deadhorse Alpine Airstrip,
Elevation: 16 ft
Nearby Weather Stations

Elev 16 ft 70.34 °N, 150.94 °W | Updated 27 minutes ago

Overcast
Overcast
-6 °F
Feels Like -28 °F
N
16
Wind Variable Wind from ENE

Today
High -- | Low -- °F
--% Chance of Precip.
Yesterday
High -- | Low -- °F
Precip. -- in
Pressure 30.39 in
Visibility 1.5 miles
Clouds Overcast 1400 ft
Windchill -28 °F
Dew Point -11 °F
Humidity 77%
Rainfall 0.00 in
Snow Depth Not available.
10:11 AM 4:25 PM
Waxing Crescent, 3% visible
METAR PALP 092345Z 06014KT 1 1/2SM BR OVC014 M21/M24 A3039
Pressure 30.39 in
Visibility 1.5 miles
Clouds Overcast 1400 ft
Windchill -28 °F
Dew Point -11 °F
Humidity 77%
Rainfall 0.00 in
Snow Depth Not available.
10:11 AM 4:25 PM
Waxing Crescent, 3% visible
METAR PALP 092345Z 06014KT 1 1/2SM BR OVC014 M21/M24 A3039

10-Day Weather Forecast

Almanac

Astronomy

Feb. 09, 2016 Rise Set
Actual Time
Civil Twilight
Nautical Twilight
Astronomical Twilight
Moon
Length of Visible Light
Length of Day
Tomorrow will be .
, % of the Moon is Illuminated

Today's Extremes

State Highs State Lows

Community

WunderPhotos

Upload Photos

1,891,744 photos uploaded!

WunderBlog® & News

Nearby

Air Quality

  Air Quality AQ Index Pollutant
Not available.

Snow Depth

Station Depth Elevation

Earthquake Activity

City Distance Mag. Time & Date
Minimum magnitude displayed is 2.5.

Coastal Water Temperatures

Place Temperature

Stations

Nearby Weather Stations

Station Location Temp. Windchill Dew Point Humidity Wind Precip. Elev Updated Type
                   

Watches & Warnings

There are currently no watches in effect.